sensor_id;sensor_type;location;lat;lon;timestamp;pressure;altitude;pressure_sealevel;temperature;humidity
21129;BME280;10722;51.910;8.352;2022-08-16T00:00:41;99947.97;;;20.44;100.00
21129;BME280;10722;51.910;8.352;2022-08-16T00:03:27;99946.94;;;20.48;100.00
21129;BME280;10722;51.910;8.352;2022-08-16T00:06:13;99957.03;;;20.60;100.00
21129;BME280;10722;51.910;8.352;2022-08-16T00:08:59;99949.25;;;20.57;100.00
21129;BME280;10722;51.910;8.352;2022-08-16T00:11:44;99953.72;;;20.55;100.00
21129;BME280;10722;51.910;8.352;2022-08-16T00:14:31;99944.94;;;20.56;100.00
21129;BME280;10722;51.910;8.352;2022-08-16T00:17:17;99943.50;;;20.46;100.00
21129;BME280;10722;51.910;8.352;2022-08-16T00:20:04;99931.63;;;20.36;100.00
21129;BME280;10722;51.910;8.352;2022-08-16T00:22:56;99927.22;;;20.36;100.00
21129;BME280;10722;51.910;8.352;2022-08-16T00:25:42;99948.88;;;20.43;100.00
21129;BME280;10722;51.910;8.352;2022-08-16T00:28:47;99955.19;;;20.37;100.00
21129;BME280;10722;51.910;8.352;2022-08-16T00:31:39;99950.53;;;20.21;100.00
21129;BME280;10722;51.910;8.352;2022-08-16T00:34:44;99955.78;;;20.21;100.00
21129;BME280;10722;51.910;8.352;2022-08-16T00:37:38;99957.75;;;20.14;100.00
21129;BME280;10722;51.910;8.352;2022-08-16T00:40:48;99955.63;;;19.99;100.00
21129;BME280;10722;51.910;8.352;2022-08-16T00:43:39;99952.03;;;20.03;100.00
21129;BME280;10722;51.910;8.352;2022-08-16T00:46:33;99963.78;;;19.91;100.00
21129;BME280;10722;51.910;8.352;2022-08-16T00:49:20;99961.28;;;19.88;100.00
21129;BME280;10722;51.910;8.352;2022-08-16T00:52:06;99959.53;;;19.87;100.00
21129;BME280;10722;51.910;8.352;2022-08-16T00:55:12;99954.00;;;19.68;100.00
21129;BME280;10722;51.910;8.352;2022-08-16T00:57:59;99959.19;;;19.71;100.00
21129;BME280;10722;51.910;8.352;2022-08-16T01:00:45;99974.88;;;19.73;100.00
21129;BME280;10722;51.910;8.352;2022-08-16T01:03:39;99983.66;;;19.72;100.00
21129;BME280;10722;51.910;8.352;2022-08-16T01:06:26;99974.97;;;19.69;100.00
21129;BME280;10722;51.910;8.352;2022-08-16T01:09:24;99983.34;;;19.53;100.00
21129;BME280;10722;51.910;8.352;2022-08-16T01:12:17;99979.97;;;19.49;100.00
21129;BME280;10722;51.910;8.352;2022-08-16T01:15:10;99983.31;;;19.54;100.00
21129;BME280;10722;51.910;8.352;2022-08-16T01:17:56;99980.75;;;19.51;100.00
21129;BME280;10722;51.910;8.352;2022-08-16T01:20:49;99980.06;;;19.46;100.00
21129;BME280;10722;51.910;8.352;2022-08-16T01:24:02;99976.91;;;19.35;100.00
21129;BME280;10722;51.910;8.352;2022-08-16T01:27:22;99972.84;;;19.24;100.00
21129;BME280;10722;51.910;8.352;2022-08-16T01:30:32;99980.56;;;19.29;100.00
21129;BME280;10722;51.910;8.352;2022-08-16T01:33:21;99975.88;;;19.40;100.00
21129;BME280;10722;51.910;8.352;2022-08-16T01:36:08;99969.84;;;19.37;100.00
21129;BME280;10722;51.910;8.352;2022-08-16T01:38:56;99974.38;;;19.32;100.00
21129;BME280;10722;51.910;8.352;2022-08-16T01:41:44;99978.81;;;19.30;100.00
21129;BME280;10722;51.910;8.352;2022-08-16T01:44:29;99974.22;;;19.36;100.00
21129;BME280;10722;51.910;8.352;2022-08-16T01:47:22;99978.47;;;19.12;100.00
21129;BME280;10722;51.910;8.352;2022-08-16T01:50:08;99964.53;;;19.10;100.00
21129;BME280;10722;51.910;8.352;2022-08-16T01:53:13;99975.56;;;19.21;100.00
21129;BME280;10722;51.910;8.352;2022-08-16T01:55:58;99974.91;;;19.13;100.00
21129;BME280;10722;51.910;8.352;2022-08-16T01:58:44;99981.88;;;19.14;100.00
21129;BME280;10722;51.910;8.352;2022-08-16T02:01:32;99967.72;;;18.90;100.00
21129;BME280;10722;51.910;8.352;2022-08-16T02:04:21;99968.47;;;18.95;100.00
21129;BME280;10722;51.910;8.352;2022-08-16T02:07:26;99969.66;;;18.84;100.00
21129;BME280;10722;51.910;8.352;2022-08-16T02:10:14;99976.44;;;18.91;100.00
21129;BME280;10722;51.910;8.352;2022-08-16T02:13:04;99977.56;;;18.82;100.00
21129;BME280;10722;51.910;8.352;2022-08-16T02:15:50;99978.34;;;18.86;100.00
21129;BME280;10722;51.910;8.352;2022-08-16T02:18:36;99973.84;;;18.89;100.00
21129;BME280;10722;51.910;8.352;2022-08-16T02:21:24;99982.72;;;18.85;100.00
21129;BME280;10722;51.910;8.352;2022-08-16T02:24:15;99984.66;;;18.78;100.00
21129;BME280;10722;51.910;8.352;2022-08-16T02:27:20;99984.00;;;18.69;100.00
21129;BME280;10722;51.910;8.352;2022-08-16T02:30:09;99988.56;;;18.62;100.00
21129;BME280;10722;51.910;8.352;2022-08-16T02:33:14;99983.13;;;18.70;100.00
21129;BME280;10722;51.910;8.352;2022-08-16T02:35:59;99986.53;;;18.73;100.00
21129;BME280;10722;51.910;8.352;2022-08-16T02:38:47;99982.16;;;18.72;100.00
21129;BME280;10722;51.910;8.352;2022-08-16T02:41:34;99989.47;;;18.61;100.00
21129;BME280;10722;51.910;8.352;2022-08-16T02:44:24;99988.44;;;18.67;100.00
21129;BME280;10722;51.910;8.352;2022-08-16T02:47:12;99992.13;;;18.59;100.00
21129;BME280;10722;51.910;8.352;2022-08-16T02:50:09;99978.00;;;18.65;100.00
21129;BME280;10722;51.910;8.352;2022-08-16T02:53:15;99984.16;;;18.64;100.00
21129;BME280;10722;51.910;8.352;2022-08-16T02:56:07;99989.34;;;18.66;100.00
21129;BME280;10722;51.910;8.352;2022-08-16T02:58:54;99985.13;;;18.60;100.00
21129;BME280;10722;51.910;8.352;2022-08-16T03:01:39;99989.41;;;18.64;100.00
21129;BME280;10722;51.910;8.352;2022-08-16T03:04:25;99985.78;;;18.68;100.00
21129;BME280;10722;51.910;8.352;2022-08-16T03:07:30;99983.34;;;18.62;100.00
21129;BME280;10722;51.910;8.352;2022-08-16T03:10:21;99971.38;;;18.52;100.00
21129;BME280;10722;51.910;8.352;2022-08-16T03:13:18;99969.41;;;18.60;100.00
21129;BME280;10722;51.910;8.352;2022-08-16T03:16:05;99978.09;;;18.62;100.00
21129;BME280;10722;51.910;8.352;2022-08-16T03:19:10;99960.38;;;18.39;100.00
21129;BME280;10722;51.910;8.352;2022-08-16T03:21:55;99966.19;;;18.50;100.00
21129;BME280;10722;51.910;8.352;2022-08-16T03:24:43;99973.06;;;18.54;100.00
21129;BME280;10722;51.910;8.352;2022-08-16T03:27:30;99980.88;;;18.56;100.00
21129;BME280;10722;51.910;8.352;2022-08-16T03:30:20;99980.91;;;18.54;100.00
21129;BME280;10722;51.910;8.352;2022-08-16T03:33:06;99981.91;;;18.50;100.00
21129;BME280;10722;51.910;8.352;2022-08-16T03:35:53;99985.47;;;18.48;100.00
21129;BME280;10722;51.910;8.352;2022-08-16T03:38:41;99976.13;;;18.37;100.00
21129;BME280;10722;51.910;8.352;2022-08-16T03:41:28;99978.66;;;18.41;100.00
21129;BME280;10722;51.910;8.352;2022-08-16T03:44:19;99972.75;;;18.32;100.00
21129;BME280;10722;51.910;8.352;2022-08-16T03:47:24;99975.44;;;18.31;100.00
21129;BME280;10722;51.910;8.352;2022-08-16T03:50:10;99974.03;;;18.18;100.00
21129;BME280;10722;51.910;8.352;2022-08-16T03:53:11;99976.75;;;18.13;100.00
21129;BME280;10722;51.910;8.352;2022-08-16T03:55:56;99976.16;;;18.02;100.00
21129;BME280;10722;51.910;8.352;2022-08-16T03:58:41;99983.84;;;18.09;100.00
21129;BME280;10722;51.910;8.352;2022-08-16T04:01:28;99975.22;;;18.06;100.00
21129;BME280;10722;51.910;8.352;2022-08-16T04:04:14;99976.25;;;17.99;100.00
21129;BME280;10722;51.910;8.352;2022-08-16T04:07:17;99989.13;;;18.08;100.00
21129;BME280;10722;51.910;8.352;2022-08-16T04:10:05;99985.75;;;18.03;100.00
21129;BME280;10722;51.910;8.352;2022-08-16T04:13:11;99990.13;;;18.02;100.00
21129;BME280;10722;51.910;8.352;2022-08-16T04:16:16;99996.47;;;17.94;100.00
21129;BME280;10722;51.910;8.352;2022-08-16T04:19:12;100000.88;;;17.90;100.00
21129;BME280;10722;51.910;8.352;2022-08-16T04:21:59;100009.53;;;17.94;100.00
21129;BME280;10722;51.910;8.352;2022-08-16T04:24:44;100006.97;;;17.90;100.00
21129;BME280;10722;51.910;8.352;2022-08-16T04:27:39;100013.22;;;17.85;100.00
21129;BME280;10722;51.910;8.352;2022-08-16T04:30:40;100011.50;;;17.84;100.00
21129;BME280;10722;51.910;8.352;2022-08-16T04:33:25;100011.59;;;17.79;100.00
21129;BME280;10722;51.910;8.352;2022-08-16T04:36:11;100015.81;;;17.86;100.00
21129;BME280;10722;51.910;8.352;2022-08-16T04:39:04;100014.81;;;17.90;100.00
21129;BME280;10722;51.910;8.352;2022-08-16T04:41:51;100026.81;;;18.01;100.00
21129;BME280;10722;51.910;8.352;2022-08-16T04:44:41;100014.56;;;18.01;100.00
21129;BME280;10722;51.910;8.352;2022-08-16T04:47:40;100015.31;;;18.08;100.00
21129;BME280;10722;51.910;8.352;2022-08-16T04:50:28;100015.50;;;17.99;100.00
21129;BME280;10722;51.910;8.352;2022-08-16T04:53:15;100019.72;;;18.04;100.00
21129;BME280;10722;51.910;8.352;2022-08-16T04:56:03;100021.25;;;18.13;100.00
21129;BME280;10722;51.910;8.352;2022-08-16T04:58:55;100024.63;;;18.18;100.00
21129;BME280;10722;51.910;8.352;2022-08-16T05:01:42;100025.28;;;18.26;100.00
21129;BME280;10722;51.910;8.352;2022-08-16T05:04:43;100034.81;;;18.30;100.00
21129;BME280;10722;51.910;8.352;2022-08-16T05:07:28;100027.75;;;18.32;100.00
21129;BME280;10722;51.910;8.352;2022-08-16T05:10:14;100032.13;;;18.32;100.00
21129;BME280;10722;51.910;8.352;2022-08-16T05:13:06;100039.81;;;18.40;100.00
21129;BME280;10722;51.910;8.352;2022-08-16T05:15:59;100024.19;;;18.36;100.00
21129;BME280;10722;51.910;8.352;2022-08-16T05:18:45;100041.34;;;18.47;100.00
21129;BME280;10722;51.910;8.352;2022-08-16T05:21:31;100038.44;;;18.59;100.00
21129;BME280;10722;51.910;8.352;2022-08-16T05:24:22;100036.56;;;18.64;100.00
21129;BME280;10722;51.910;8.352;2022-08-16T05:27:09;100030.53;;;18.60;100.00
21129;BME280;10722;51.910;8.352;2022-08-16T05:29:55;100034.66;;;18.69;100.00
21129;BME280;10722;51.910;8.352;2022-08-16T05:33:00;100036.31;;;18.73;100.00
21129;BME280;10722;51.910;8.352;2022-08-16T05:35:46;100039.53;;;18.85;100.00
21129;BME280;10722;51.910;8.352;2022-08-16T05:38:40;100043.69;;;18.92;100.00
21129;BME280;10722;51.910;8.352;2022-08-16T05:41:25;100035.72;;;18.95;100.00
21129;BME280;10722;51.910;8.352;2022-08-16T05:44:12;100040.03;;;18.97;100.00
21129;BME280;10722;51.910;8.352;2022-08-16T05:47:08;100042.50;;;19.03;100.00
21129;BME280;10722;51.910;8.352;2022-08-16T05:49:59;100035.41;;;19.07;100.00
21129;BME280;10722;51.910;8.352;2022-08-16T05:52:46;100035.88;;;19.21;100.00
21129;BME280;10722;51.910;8.352;2022-08-16T05:55:32;100033.44;;;19.15;100.00
21129;BME280;10722;51.910;8.352;2022-08-16T05:58:25;100034.38;;;19.13;99.72
21129;BME280;10722;51.910;8.352;2022-08-16T06:01:17;100032.72;;;19.09;99.31
21129;BME280;10722;51.910;8.352;2022-08-16T06:04:07;100035.25;;;19.12;98.79
21129;BME280;10722;51.910;8.352;2022-08-16T06:07:12;100031.75;;;19.13;97.62
21129;BME280;10722;51.910;8.352;2022-08-16T06:10:12;100040.19;;;19.22;97.43
21129;BME280;10722;51.910;8.352;2022-08-16T06:12:57;100046.69;;;19.40;97.44
21129;BME280;10722;51.910;8.352;2022-08-16T06:15:43;100035.72;;;19.56;96.26
21129;BME280;10722;51.910;8.352;2022-08-16T06:18:28;100044.41;;;19.58;95.44
21129;BME280;10722;51.910;8.352;2022-08-16T06:21:14;100043.50;;;19.59;94.18
21129;BME280;10722;51.910;8.352;2022-08-16T06:24:08;100049.47;;;19.65;93.88
21129;BME280;10722;51.910;8.352;2022-08-16T06:27:12;100047.50;;;19.72;93.28
21129;BME280;10722;51.910;8.352;2022-08-16T06:29:58;100046.66;;;19.72;92.63
21129;BME280;10722;51.910;8.352;2022-08-16T06:32:43;100048.31;;;19.74;92.54
21129;BME280;10722;51.910;8.352;2022-08-16T06:35:32;100056.81;;;19.82;93.29
21129;BME280;10722;51.910;8.352;2022-08-16T06:38:26;100053.03;;;19.91;93.08
21129;BME280;10722;51.910;8.352;2022-08-16T06:41:18;100039.09;;;19.89;91.88
21129;BME280;10722;51.910;8.352;2022-08-16T06:44:04;100047.38;;;20.03;92.35
21129;BME280;10722;51.910;8.352;2022-08-16T06:46:49;100047.91;;;20.14;91.91
21129;BME280;10722;51.910;8.352;2022-08-16T06:49:34;100039.72;;;20.24;91.19
21129;BME280;10722;51.910;8.352;2022-08-16T06:52:20;100035.88;;;20.34;90.73
21129;BME280;10722;51.910;8.352;2022-08-16T06:55:26;100039.16;;;20.41;89.89
21129;BME280;10722;51.910;8.352;2022-08-16T06:58:18;100052.59;;;20.58;90.63
21129;BME280;10722;51.910;8.352;2022-08-16T07:01:15;100043.28;;;20.74;89.31
21129;BME280;10722;51.910;8.352;2022-08-16T07:04:03;100052.00;;;21.00;88.58
21129;BME280;10722;51.910;8.352;2022-08-16T07:06:55;100054.00;;;21.17;87.33
21129;BME280;10722;51.910;8.352;2022-08-16T07:09:43;100050.38;;;21.44;87.08
21129;BME280;10722;51.910;8.352;2022-08-16T07:12:30;100043.38;;;21.67;84.85
21129;BME280;10722;51.910;8.352;2022-08-16T07:15:31;100047.53;;;21.73;83.23
21129;BME280;10722;51.910;8.352;2022-08-16T07:18:18;100046.06;;;21.87;83.00
21129;BME280;10722;51.910;8.352;2022-08-16T07:21:04;100042.84;;;22.03;81.99
21129;BME280;10722;51.910;8.352;2022-08-16T07:23:51;100035.00;;;22.23;81.10
21129;BME280;10722;51.910;8.352;2022-08-16T07:26:49;100017.75;;;22.36;80.05
21129;BME280;10722;51.910;8.352;2022-08-16T07:29:35;100049.13;;;22.63;81.16
21129;BME280;10722;51.910;8.352;2022-08-16T07:32:24;100034.97;;;23.07;78.97
21129;BME280;10722;51.910;8.352;2022-08-16T07:35:16;100015.19;;;23.53;77.17
21129;BME280;10722;51.910;8.352;2022-08-16T07:38:03;100008.84;;;23.57;74.90
21129;BME280;10722;51.910;8.352;2022-08-16T07:40:48;100028.44;;;23.89;75.14
21129;BME280;10722;51.910;8.352;2022-08-16T07:43:45;100018.53;;;24.12;73.74
21129;BME280;10722;51.910;8.352;2022-08-16T07:46:31;99999.31;;;24.45;71.41
21129;BME280;10722;51.910;8.352;2022-08-16T07:49:23;99991.09;;;24.32;70.45
21129;BME280;10722;51.910;8.352;2022-08-16T07:52:09;100006.41;;;24.43;70.27
21129;BME280;10722;51.910;8.352;2022-08-16T07:55:06;100011.91;;;24.90;69.31
21129;BME280;10722;51.910;8.352;2022-08-16T07:57:51;100023.13;;;25.11;69.29
21129;BME280;10722;51.910;8.352;2022-08-16T08:00:47;100005.63;;;25.58;67.21
21129;BME280;10722;51.910;8.352;2022-08-16T08:03:32;99999.00;;;25.81;65.83
21129;BME280;10722;51.910;8.352;2022-08-16T08:06:27;100008.69;;;25.66;65.57
21129;BME280;10722;51.910;8.352;2022-08-16T08:09:13;99990.72;;;26.33;64.61
21129;BME280;10722;51.910;8.352;2022-08-16T08:12:00;99969.06;;;27.12;61.28
21129;BME280;10722;51.910;8.352;2022-08-16T08:14:50;99975.75;;;27.46;60.90
21129;BME280;10722;51.910;8.352;2022-08-16T08:17:36;99965.44;;;27.69;59.43
21129;BME280;10722;51.910;8.352;2022-08-16T08:20:28;99976.03;;;27.42;59.66
21129;BME280;10722;51.910;8.352;2022-08-16T08:23:17;99982.59;;;28.17;59.26
21129;BME280;10722;51.910;8.352;2022-08-16T08:26:03;99976.72;;;28.65;57.26
21129;BME280;10722;51.910;8.352;2022-08-16T08:29:02;99978.19;;;28.82;56.01
21129;BME280;10722;51.910;8.352;2022-08-16T08:31:52;99955.44;;;29.27;54.51
21129;BME280;10722;51.910;8.352;2022-08-16T08:34:38;99974.47;;;29.47;54.25
21129;BME280;10722;51.910;8.352;2022-08-16T08:37:24;100006.03;;;29.77;54.82
21129;BME280;10722;51.910;8.352;2022-08-16T08:40:10;99982.28;;;30.33;52.42
21129;BME280;10722;51.910;8.352;2022-08-16T08:42:58;99971.63;;;30.45;51.04
21129;BME280;10722;51.910;8.352;2022-08-16T08:46:02;100003.44;;;30.59;52.17
21129;BME280;10722;51.910;8.352;2022-08-16T08:49:03;100007.72;;;30.02;52.76
21129;BME280;10722;51.910;8.352;2022-08-16T08:51:48;100020.78;;;29.57;53.07
21129;BME280;10722;51.910;8.352;2022-08-16T08:54:33;100048.78;;;30.48;53.38
21129;BME280;10722;51.910;8.352;2022-08-16T08:57:18;100000.50;;;30.51;50.45
21129;BME280;10722;51.910;8.352;2022-08-16T09:00:08;100016.75;;;30.48;50.68
21129;BME280;10722;51.910;8.352;2022-08-16T09:02:57;100058.75;;;31.48;51.52
21129;BME280;10722;51.910;8.352;2022-08-16T09:05:48;99984.44;;;32.07;47.73
21129;BME280;10722;51.910;8.352;2022-08-16T09:08:35;100012.50;;;32.12;47.99
21129;BME280;10722;51.910;8.352;2022-08-16T09:11:20;100006.72;;;32.70;47.24
21129;BME280;10722;51.910;8.352;2022-08-16T09:14:25;99988.91;;;31.08;47.85
21129;BME280;10722;51.910;8.352;2022-08-16T09:17:11;100014.03;;;31.39;48.21
21129;BME280;10722;51.910;8.352;2022-08-16T09:20:16;100003.56;;;32.02;46.76
21129;BME280;10722;51.910;8.352;2022-08-16T09:23:04;100053.63;;;32.65;49.05
21129;BME280;10722;51.910;8.352;2022-08-16T09:25:50;99987.13;;;32.70;45.39
21129;BME280;10722;51.910;8.352;2022-08-16T09:28:36;100022.47;;;32.64;46.92
21129;BME280;10722;51.910;8.352;2022-08-16T09:31:42;99997.16;;;32.77;45.07
21129;BME280;10722;51.910;8.352;2022-08-16T09:34:29;100016.09;;;32.44;45.79
21129;BME280;10722;51.910;8.352;2022-08-16T09:37:14;100002.00;;;32.84;44.32
21129;BME280;10722;51.910;8.352;2022-08-16T09:40:05;100008.63;;;32.58;45.19
21129;BME280;10722;51.910;8.352;2022-08-16T09:43:13;100008.19;;;32.53;44.85
21129;BME280;10722;51.910;8.352;2022-08-16T09:46:18;100047.91;;;32.37;47.66
21129;BME280;10722;51.910;8.352;2022-08-16T09:49:24;100034.56;;;32.26;46.93
21129;BME280;10722;51.910;8.352;2022-08-16T09:52:21;100037.13;;;30.49;49.51
21129;BME280;10722;51.910;8.352;2022-08-16T09:55:10;100028.59;;;29.84;49.43
21129;BME280;10722;51.910;8.352;2022-08-16T09:57:57;100054.81;;;29.66;51.90
21129;BME280;10722;51.910;8.352;2022-08-16T10:00:42;100061.16;;;29.27;52.62
21129;BME280;10722;51.910;8.352;2022-08-16T10:03:29;100065.41;;;28.91;54.41
21129;BME280;10722;51.910;8.352;2022-08-16T10:06:14;100076.03;;;28.66;54.57
21129;BME280;10722;51.910;8.352;2022-08-16T10:09:06;100066.88;;;28.44;55.01
21129;BME280;10722;51.910;8.352;2022-08-16T10:11:52;100056.78;;;28.35;54.02
21129;BME280;10722;51.910;8.352;2022-08-16T10:14:38;100060.69;;;27.89;53.91
21129;BME280;10722;51.910;8.352;2022-08-16T10:17:29;100074.81;;;27.76;55.11
21129;BME280;10722;51.910;8.352;2022-08-16T10:20:15;100076.91;;;27.29;56.18
21129;BME280;10722;51.910;8.352;2022-08-16T10:23:05;100077.25;;;28.07;55.69
21129;BME280;10722;51.910;8.352;2022-08-16T10:25:53;100059.84;;;28.69;54.08
21129;BME280;10722;51.910;8.352;2022-08-16T10:28:59;100081.84;;;29.23;54.63
21129;BME280;10722;51.910;8.352;2022-08-16T10:31:48;100009.28;;;29.57;49.89
21129;BME280;10722;51.910;8.352;2022-08-16T10:34:38;100069.00;;;29.91;52.71
21129;BME280;10722;51.910;8.352;2022-08-16T10:37:23;100027.19;;;29.91;50.73
21129;BME280;10722;51.910;8.352;2022-08-16T10:40:20;100039.50;;;29.81;51.21
21129;BME280;10722;51.910;8.352;2022-08-16T10:43:14;100006.94;;;29.15;50.31
21129;BME280;10722;51.910;8.352;2022-08-16T10:46:04;100023.13;;;28.99;51.40
21129;BME280;10722;51.910;8.352;2022-08-16T10:49:11;100038.50;;;28.03;53.01
21129;BME280;10722;51.910;8.352;2022-08-16T10:52:03;100046.69;;;28.00;53.72
21129;BME280;10722;51.910;8.352;2022-08-16T10:55:04;100030.75;;;28.00;52.20
21129;BME280;10722;51.910;8.352;2022-08-16T10:58:13;100045.50;;;27.91;53.29
21129;BME280;10722;51.910;8.352;2022-08-16T11:01:05;100029.69;;;28.03;52.53
21129;BME280;10722;51.910;8.352;2022-08-16T11:04:11;100070.47;;;28.16;54.04
21129;BME280;10722;51.910;8.352;2022-08-16T11:07:16;100019.06;;;28.15;51.24
21129;BME280;10722;51.910;8.352;2022-08-16T11:10:35;100063.34;;;28.16;54.61
21129;BME280;10722;51.910;8.352;2022-08-16T11:13:41;100021.69;;;28.30;52.00
21129;BME280;10722;51.910;8.352;2022-08-16T11:16:43;100014.66;;;28.29;51.58
21129;BME280;10722;51.910;8.352;2022-08-16T11:19:49;100014.84;;;28.26;50.90
21129;BME280;10722;51.910;8.352;2022-08-16T11:22:54;100009.28;;;28.03;50.54
21129;BME280;10722;51.910;8.352;2022-08-16T11:25:40;100015.44;;;28.04;50.92
21129;BME280;10722;51.910;8.352;2022-08-16T11:28:45;100016.47;;;27.88;51.18
21129;BME280;10722;51.910;8.352;2022-08-16T11:31:50;100037.38;;;27.80;51.95
21129;BME280;10722;51.910;8.352;2022-08-16T11:34:38;100034.25;;;27.74;51.81
21129;BME280;10722;51.910;8.352;2022-08-16T11:37:58;100050.00;;;28.04;53.78
21129;BME280;10722;51.910;8.352;2022-08-16T11:41:04;100028.28;;;28.37;51.37
21129;BME280;10722;51.910;8.352;2022-08-16T11:43:50;100004.28;;;28.51;49.26
21129;BME280;10722;51.910;8.352;2022-08-16T11:46:36;100006.59;;;28.43;49.48
21129;BME280;10722;51.910;8.352;2022-08-16T11:49:30;100017.78;;;28.48;49.85
21129;BME280;10722;51.910;8.352;2022-08-16T11:52:16;100017.09;;;28.32;49.25
21129;BME280;10722;51.910;8.352;2022-08-16T11:55:08;99996.88;;;28.29;48.43
21129;BME280;10722;51.910;8.352;2022-08-16T11:57:54;100000.25;;;28.58;47.69
21129;BME280;10722;51.910;8.352;2022-08-16T12:00:43;100026.19;;;29.32;47.92
21129;BME280;10722;51.910;8.352;2022-08-16T12:03:36;100004.94;;;30.28;46.42
21129;BME280;10722;51.910;8.352;2022-08-16T12:06:26;100003.97;;;31.09;44.18
21129;BME280;10722;51.910;8.352;2022-08-16T12:09:14;100046.00;;;31.84;46.24
21129;BME280;10722;51.910;8.352;2022-08-16T12:12:00;100005.34;;;32.13;43.31
21129;BME280;10722;51.910;8.352;2022-08-16T12:14:47;99988.91;;;32.59;41.83
21129;BME280;10722;51.910;8.352;2022-08-16T12:17:35;99977.53;;;32.98;40.26
21129;BME280;10722;51.910;8.352;2022-08-16T12:20:25;99990.44;;;33.64;39.79
21129;BME280;10722;51.910;8.352;2022-08-16T12:23:14;99955.69;;;34.21;36.96
21129;BME280;10722;51.910;8.352;2022-08-16T12:26:01;99954.06;;;32.80;39.08
21129;BME280;10722;51.910;8.352;2022-08-16T12:28:54;99983.38;;;33.03;39.95
21129;BME280;10722;51.910;8.352;2022-08-16T12:31:41;99950.91;;;33.76;37.08
21129;BME280;10722;51.910;8.352;2022-08-16T12:34:46;99961.50;;;33.97;37.50
21129;BME280;10722;51.910;8.352;2022-08-16T12:37:37;99968.78;;;33.46;38.32
21129;BME280;10722;51.910;8.352;2022-08-16T12:40:32;99985.38;;;34.19;38.03
21129;BME280;10722;51.910;8.352;2022-08-16T12:43:19;99974.31;;;34.61;36.31
21129;BME280;10722;51.910;8.352;2022-08-16T12:46:09;99969.91;;;34.60;36.23
21129;BME280;10722;51.910;8.352;2022-08-16T12:48:54;99983.19;;;36.26;35.11
21129;BME280;10722;51.910;8.352;2022-08-16T12:51:40;99934.16;;;36.14;31.91
21129;BME280;10722;51.910;8.352;2022-08-16T12:54:43;99961.28;;;36.21;33.48
21129;BME280;10722;51.910;8.352;2022-08-16T12:57:39;99957.31;;;34.61;34.61
21129;BME280;10722;51.910;8.352;2022-08-16T13:00:28;99958.59;;;33.30;37.17
21129;BME280;10722;51.910;8.352;2022-08-16T13:03:18;99954.84;;;31.55;39.33
21129;BME280;10722;51.910;8.352;2022-08-16T13:06:05;100003.47;;;31.26;42.92
21129;BME280;10722;51.910;8.352;2022-08-16T13:08:52;100024.25;;;31.23;45.14
21129;BME280;10722;51.910;8.352;2022-08-16T13:11:39;100021.22;;;31.39;44.51
21129;BME280;10722;51.910;8.352;2022-08-16T13:14:36;100000.31;;;31.10;43.85
21129;BME280;10722;51.910;8.352;2022-08-16T13:17:24;100024.03;;;32.24;43.11
21129;BME280;10722;51.910;8.352;2022-08-16T13:20:18;99973.47;;;32.73;39.39
21129;BME280;10722;51.910;8.352;2022-08-16T13:23:09;99975.44;;;32.29;40.05
21129;BME280;10722;51.910;8.352;2022-08-16T13:25:54;99980.19;;;32.04;40.64
21129;BME280;10722;51.910;8.352;2022-08-16T13:28:39;99998.69;;;32.28;41.84
21129;BME280;10722;51.910;8.352;2022-08-16T13:31:31;100029.28;;;32.47;44.52
21129;BME280;10722;51.910;8.352;2022-08-16T13:34:17;99959.50;;;32.06;39.90
21129;BME280;10722;51.910;8.352;2022-08-16T13:37:03;99982.28;;;32.01;42.45
21129;BME280;10722;51.910;8.352;2022-08-16T13:39:48;99966.69;;;32.06;40.91
21129;BME280;10722;51.910;8.352;2022-08-16T13:42:33;99944.56;;;31.71;38.85
21129;BME280;10722;51.910;8.352;2022-08-16T13:45:25;99967.75;;;31.27;41.23
21129;BME280;10722;51.910;8.352;2022-08-16T13:48:10;99976.00;;;31.24;41.65
21129;BME280;10722;51.910;8.352;2022-08-16T13:51:09;99958.53;;;30.64;40.78
21129;BME280;10722;51.910;8.352;2022-08-16T13:54:01;99959.00;;;30.35;41.50
21129;BME280;10722;51.910;8.352;2022-08-16T13:56:47;99968.44;;;30.40;41.59
21129;BME280;10722;51.910;8.352;2022-08-16T13:59:33;99972.81;;;30.52;42.36
21129;BME280;10722;51.910;8.352;2022-08-16T14:02:18;99955.97;;;30.51;41.16
21129;BME280;10722;51.910;8.352;2022-08-16T14:05:05;99971.38;;;30.48;41.79
21129;BME280;10722;51.910;8.352;2022-08-16T14:07:50;99959.00;;;30.35;41.52
21129;BME280;10722;51.910;8.352;2022-08-16T14:10:36;99949.16;;;30.25;41.56
21129;BME280;10722;51.910;8.352;2022-08-16T14:13:22;99959.09;;;30.34;41.51
21129;BME280;10722;51.910;8.352;2022-08-16T14:16:07;99953.03;;;30.32;41.18
21129;BME280;10722;51.910;8.352;2022-08-16T14:19:08;99930.28;;;30.15;39.70
21129;BME280;10722;51.910;8.352;2022-08-16T14:21:59;99926.75;;;30.03;40.18
21129;BME280;10722;51.910;8.352;2022-08-16T14:25:00;99942.13;;;30.00;40.31
21129;BME280;10722;51.910;8.352;2022-08-16T14:27:47;99935.91;;;29.88;41.06
21129;BME280;10722;51.910;8.352;2022-08-16T14:30:38;99953.72;;;29.87;41.33
21129;BME280;10722;51.910;8.352;2022-08-16T14:33:25;99941.66;;;29.70;40.92
21129;BME280;10722;51.910;8.352;2022-08-16T14:36:15;99952.31;;;29.70;40.94
21129;BME280;10722;51.910;8.352;2022-08-16T14:39:13;99941.78;;;29.69;40.82
21129;BME280;10722;51.910;8.352;2022-08-16T14:42:11;99950.44;;;29.60;41.20
21129;BME280;10722;51.910;8.352;2022-08-16T14:44:57;99953.56;;;29.78;40.87
21129;BME280;10722;51.910;8.352;2022-08-16T14:47:45;99985.19;;;30.06;42.40
21129;BME280;10722;51.910;8.352;2022-08-16T14:50:34;99969.28;;;30.29;40.90
21129;BME280;10722;51.910;8.352;2022-08-16T14:53:22;99957.69;;;30.17;40.71
21129;BME280;10722;51.910;8.352;2022-08-16T14:56:07;99973.41;;;29.98;42.31